sensor_id;sensor_type;location;lat;lon;timestamp;temperature;humidity
262;DHT22;114;48.260;10.988;2022-08-21T00:01:52;15.30;99.90
262;DHT22;114;48.260;10.988;2022-08-21T00:04:18;15.20;99.90
262;DHT22;114;48.260;10.988;2022-08-21T00:06:43;15.20;99.90
262;DHT22;114;48.260;10.988;2022-08-21T00:09:09;15.30;99.90
262;DHT22;114;48.260;10.988;2022-08-21T00:11:37;15.30;99.90
262;DHT22;114;48.260;10.988;2022-08-21T00:14:05;15.30;99.90
262;DHT22;114;48.260;10.988;2022-08-21T00:16:31;15.20;99.90
262;DHT22;114;48.260;10.988;2022-08-21T00:18:57;15.20;99.90
262;DHT22;114;48.260;10.988;2022-08-21T00:21:23;15.20;99.90
262;DHT22;114;48.260;10.988;2022-08-21T00:23:50;15.10;99.90
262;DHT22;114;48.260;10.988;2022-08-21T00:26:16;15.10;99.90
262;DHT22;114;48.260;10.988;2022-08-21T00:28:42;15.10;99.90
262;DHT22;114;48.260;10.988;2022-08-21T00:31:08;15.10;99.90
262;DHT22;114;48.260;10.988;2022-08-21T00:33:34;15.00;99.90
262;DHT22;114;48.260;10.988;2022-08-21T00:36:00;15.00;99.90
262;DHT22;114;48.260;10.988;2022-08-21T00:38:26;15.00;99.90
262;DHT22;114;48.260;10.988;2022-08-21T00:40:58;14.90;99.90
262;DHT22;114;48.260;10.988;2022-08-21T00:43:30;14.90;99.90
262;DHT22;114;48.260;10.988;2022-08-21T00:45:57;14.80;99.90
262;DHT22;114;48.260;10.988;2022-08-21T00:48:26;14.80;99.90
262;DHT22;114;48.260;10.988;2022-08-21T00:53:21;14.60;99.90
262;DHT22;114;48.260;10.988;2022-08-21T00:55:47;14.50;99.90
262;DHT22;114;48.260;10.988;2022-08-21T00:58:14;14.50;99.90
262;DHT22;114;48.260;10.988;2022-08-21T01:00:42;14.50;99.90
262;DHT22;114;48.260;10.988;2022-08-21T01:03:11;14.40;99.90
262;DHT22;114;48.260;10.988;2022-08-21T01:05:38;14.40;99.90
262;DHT22;114;48.260;10.988;2022-08-21T01:08:04;14.40;99.90
262;DHT22;114;48.260;10.988;2022-08-21T01:10:32;14.40;99.90
262;DHT22;114;48.260;10.988;2022-08-21T01:12:59;14.30;99.90
262;DHT22;114;48.260;10.988;2022-08-21T01:15:32;14.30;99.90
262;DHT22;114;48.260;10.988;2022-08-21T01:17:59;14.30;99.90
262;DHT22;114;48.260;10.988;2022-08-21T01:20:26;14.40;99.90
262;DHT22;114;48.260;10.988;2022-08-21T01:22:52;14.40;99.90
262;DHT22;114;48.260;10.988;2022-08-21T01:25:18;14.40;99.90
262;DHT22;114;48.260;10.988;2022-08-21T01:27:47;14.40;99.90
262;DHT22;114;48.260;10.988;2022-08-21T01:30:24;14.40;99.90
262;DHT22;114;48.260;10.988;2022-08-21T01:32:52;14.40;99.90
262;DHT22;114;48.260;10.988;2022-08-21T01:35:20;14.30;99.90
262;DHT22;114;48.260;10.988;2022-08-21T01:37:47;14.30;99.90
262;DHT22;114;48.260;10.988;2022-08-21T01:40:15;14.30;99.90
262;DHT22;114;48.260;10.988;2022-08-21T01:42:44;14.30;99.90
262;DHT22;114;48.260;10.988;2022-08-21T01:45:10;14.30;99.90
262;DHT22;114;48.260;10.988;2022-08-21T01:47:38;14.30;99.90
262;DHT22;114;48.260;10.988;2022-08-21T01:50:11;14.30;99.90
262;DHT22;114;48.260;10.988;2022-08-21T01:52:38;14.20;99.90
262;DHT22;114;48.260;10.988;2022-08-21T01:55:09;14.30;99.90
262;DHT22;114;48.260;10.988;2022-08-21T01:57:35;14.30;99.90
262;DHT22;114;48.260;10.988;2022-08-21T02:00:04;14.30;99.90
262;DHT22;114;48.260;10.988;2022-08-21T02:02:30;14.30;99.90
262;DHT22;114;48.260;10.988;2022-08-21T02:04:56;14.10;99.90
262;DHT22;114;48.260;10.988;2022-08-21T02:07:22;14.00;99.90
262;DHT22;114;48.260;10.988;2022-08-21T02:09:48;14.00;99.90
262;DHT22;114;48.260;10.988;2022-08-21T02:12:14;13.90;99.90
262;DHT22;114;48.260;10.988;2022-08-21T02:14:40;13.80;99.90
262;DHT22;114;48.260;10.988;2022-08-21T02:17:06;13.80;99.90
262;DHT22;114;48.260;10.988;2022-08-21T02:19:32;13.70;99.90
262;DHT22;114;48.260;10.988;2022-08-21T02:21:58;13.60;99.90
262;DHT22;114;48.260;10.988;2022-08-21T02:24:23;13.50;99.90
262;DHT22;114;48.260;10.988;2022-08-21T02:26:49;13.50;99.90
262;DHT22;114;48.260;10.988;2022-08-21T02:29:15;13.40;99.90
262;DHT22;114;48.260;10.988;2022-08-21T02:31:41;13.40;99.90
262;DHT22;114;48.260;10.988;2022-08-21T02:34:06;13.40;99.90
262;DHT22;114;48.260;10.988;2022-08-21T02:36:32;13.30;99.90
262;DHT22;114;48.260;10.988;2022-08-21T02:38:58;13.30;99.90
262;DHT22;114;48.260;10.988;2022-08-21T02:41:24;13.20;99.90
262;DHT22;114;48.260;10.988;2022-08-21T02:43:50;13.20;99.90
262;DHT22;114;48.260;10.988;2022-08-21T02:46:18;13.30;99.90
262;DHT22;114;48.260;10.988;2022-08-21T02:48:45;13.30;99.90
262;DHT22;114;48.260;10.988;2022-08-21T02:51:15;13.20;99.90
262;DHT22;114;48.260;10.988;2022-08-21T02:53:44;13.20;99.90
262;DHT22;114;48.260;10.988;2022-08-21T02:56:13;13.10;99.90
262;DHT22;114;48.260;10.988;2022-08-21T02:58:42;13.00;99.90
262;DHT22;114;48.260;10.988;2022-08-21T03:01:09;13.00;99.90
262;DHT22;114;48.260;10.988;2022-08-21T03:03:39;12.90;99.90
262;DHT22;114;48.260;10.988;2022-08-21T03:06:08;12.90;99.90
262;DHT22;114;48.260;10.988;2022-08-21T03:08:35;12.90;99.90
262;DHT22;114;48.260;10.988;2022-08-21T03:11:01;12.90;99.90
262;DHT22;114;48.260;10.988;2022-08-21T03:13:28;12.80;99.90
262;DHT22;114;48.260;10.988;2022-08-21T03:15:54;12.80;99.90
262;DHT22;114;48.260;10.988;2022-08-21T03:18:20;12.70;99.90
262;DHT22;114;48.260;10.988;2022-08-21T03:20:47;12.70;99.90
262;DHT22;114;48.260;10.988;2022-08-21T03:23:13;12.60;99.90
262;DHT22;114;48.260;10.988;2022-08-21T03:25:40;12.60;99.90
262;DHT22;114;48.260;10.988;2022-08-21T03:28:08;12.50;99.90
262;DHT22;114;48.260;10.988;2022-08-21T03:30:35;12.50;99.90
262;DHT22;114;48.260;10.988;2022-08-21T03:33:02;12.50;99.90
262;DHT22;114;48.260;10.988;2022-08-21T03:35:29;12.50;99.90
262;DHT22;114;48.260;10.988;2022-08-21T03:37:55;12.50;99.90
262;DHT22;114;48.260;10.988;2022-08-21T03:40:22;12.50;99.90
262;DHT22;114;48.260;10.988;2022-08-21T03:42:48;12.70;99.90
262;DHT22;114;48.260;10.988;2022-08-21T03:45:16;12.90;99.90
262;DHT22;114;48.260;10.988;2022-08-21T03:47:56;13.00;99.90
262;DHT22;114;48.260;10.988;2022-08-21T03:50:24;13.00;99.90
262;DHT22;114;48.260;10.988;2022-08-21T03:52:50;13.00;99.90
262;DHT22;114;48.260;10.988;2022-08-21T03:55:16;13.00;99.90
262;DHT22;114;48.260;10.988;2022-08-21T03:57:42;12.90;99.90
262;DHT22;114;48.260;10.988;2022-08-21T04:00:10;12.80;99.90
262;DHT22;114;48.260;10.988;2022-08-21T04:02:38;12.70;99.90
262;DHT22;114;48.260;10.988;2022-08-21T04:05:04;12.70;99.90
262;DHT22;114;48.260;10.988;2022-08-21T04:07:30;12.60;99.90
262;DHT22;114;48.260;10.988;2022-08-21T04:09:58;12.80;99.90
262;DHT22;114;48.260;10.988;2022-08-21T04:12:24;12.80;99.90
262;DHT22;114;48.260;10.988;2022-08-21T04:14:50;12.70;99.90
262;DHT22;114;48.260;10.988;2022-08-21T04:17:17;12.80;99.90
262;DHT22;114;48.260;10.988;2022-08-21T04:19:44;12.80;99.90
262;DHT22;114;48.260;10.988;2022-08-21T04:22:11;12.80;99.90
262;DHT22;114;48.260;10.988;2022-08-21T04:24:37;12.80;99.90
262;DHT22;114;48.260;10.988;2022-08-21T04:27:03;12.80;99.90
262;DHT22;114;48.260;10.988;2022-08-21T04:29:29;12.80;99.90
262;DHT22;114;48.260;10.988;2022-08-21T04:31:55;12.90;99.90
262;DHT22;114;48.260;10.988;2022-08-21T04:34:21;13.00;99.90
262;DHT22;114;48.260;10.988;2022-08-21T04:36:46;13.00;99.90
262;DHT22;114;48.260;10.988;2022-08-21T04:39:12;13.00;99.90
262;DHT22;114;48.260;10.988;2022-08-21T04:41:38;13.10;99.90
262;DHT22;114;48.260;10.988;2022-08-21T04:44:04;13.10;99.90
262;DHT22;114;48.260;10.988;2022-08-21T04:46:30;13.10;99.90
262;DHT22;114;48.260;10.988;2022-08-21T04:48:55;13.10;99.90
262;DHT22;114;48.260;10.988;2022-08-21T04:51:28;13.20;99.90
262;DHT22;114;48.260;10.988;2022-08-21T04:53:59;13.10;99.90
262;DHT22;114;48.260;10.988;2022-08-21T04:56:37;13.00;99.90
262;DHT22;114;48.260;10.988;2022-08-21T04:59:06;13.00;99.90
262;DHT22;114;48.260;10.988;2022-08-21T05:01:37;13.10;99.90
262;DHT22;114;48.260;10.988;2022-08-21T05:04:06;13.10;99.90
262;DHT22;114;48.260;10.988;2022-08-21T05:06:36;13.10;99.90
262;DHT22;114;48.260;10.988;2022-08-21T05:09:03;13.20;99.90
262;DHT22;114;48.260;10.988;2022-08-21T05:11:30;13.20;99.90
262;DHT22;114;48.260;10.988;2022-08-21T05:13:56;13.40;99.90
262;DHT22;114;48.260;10.988;2022-08-21T05:16:22;13.40;99.90
262;DHT22;114;48.260;10.988;2022-08-21T05:18:47;13.50;99.90
262;DHT22;114;48.260;10.988;2022-08-21T05:21:13;13.70;99.90
262;DHT22;114;48.260;10.988;2022-08-21T05:23:39;13.70;99.90
262;DHT22;114;48.260;10.988;2022-08-21T05:26:04;13.90;99.90
262;DHT22;114;48.260;10.988;2022-08-21T05:28:31;14.00;99.90
262;DHT22;114;48.260;10.988;2022-08-21T05:30:57;14.10;99.90
262;DHT22;114;48.260;10.988;2022-08-21T05:33:23;14.30;99.90
262;DHT22;114;48.260;10.988;2022-08-21T05:35:53;14.40;99.90
262;DHT22;114;48.260;10.988;2022-08-21T05:38:22;14.50;99.90
262;DHT22;114;48.260;10.988;2022-08-21T05:40:48;14.50;99.90
262;DHT22;114;48.260;10.988;2022-08-21T05:43:14;14.50;99.90
262;DHT22;114;48.260;10.988;2022-08-21T05:45:41;14.60;99.90
262;DHT22;114;48.260;10.988;2022-08-21T05:48:11;14.70;99.90
262;DHT22;114;48.260;10.988;2022-08-21T05:50:37;14.80;99.90
262;DHT22;114;48.260;10.988;2022-08-21T05:53:04;15.00;99.90
262;DHT22;114;48.260;10.988;2022-08-21T05:55:31;15.20;99.90
262;DHT22;114;48.260;10.988;2022-08-21T05:57:57;15.20;99.90
262;DHT22;114;48.260;10.988;2022-08-21T06:00:24;15.30;99.90
262;DHT22;114;48.260;10.988;2022-08-21T06:02:50;15.60;99.90
262;DHT22;114;48.260;10.988;2022-08-21T06:05:17;15.80;99.50
262;DHT22;114;48.260;10.988;2022-08-21T06:07:43;16.10;98.60
262;DHT22;114;48.260;10.988;2022-08-21T06:10:09;16.20;95.00
262;DHT22;114;48.260;10.988;2022-08-21T06:12:36;16.20;94.80
262;DHT22;114;48.260;10.988;2022-08-21T06:15:03;16.30;93.50
262;DHT22;114;48.260;10.988;2022-08-21T06:17:29;16.50;90.70
262;DHT22;114;48.260;10.988;2022-08-21T06:19:55;16.40;90.60
262;DHT22;114;48.260;10.988;2022-08-21T06:22:21;16.40;90.90
262;DHT22;114;48.260;10.988;2022-08-21T06:24:48;16.50;90.20
262;DHT22;114;48.260;10.988;2022-08-21T06:27:14;16.70;87.10
262;DHT22;114;48.260;10.988;2022-08-21T06:29:41;16.70;88.30
262;DHT22;114;48.260;10.988;2022-08-21T06:32:10;17.00;83.60
262;DHT22;114;48.260;10.988;2022-08-21T06:34:37;17.10;79.20
262;DHT22;114;48.260;10.988;2022-08-21T06:37:03;17.20;76.90
262;DHT22;114;48.260;10.988;2022-08-21T06:39:30;17.10;73.60
262;DHT22;114;48.260;10.988;2022-08-21T06:41:55;17.40;78.10
262;DHT22;114;48.260;10.988;2022-08-21T06:44:21;17.50;70.20
262;DHT22;114;48.260;10.988;2022-08-21T06:46:47;17.70;67.40
262;DHT22;114;48.260;10.988;2022-08-21T06:49:14;17.80;60.30
262;DHT22;114;48.260;10.988;2022-08-21T06:51:40;17.90;63.50
262;DHT22;114;48.260;10.988;2022-08-21T06:54:06;17.90;59.10
262;DHT22;114;48.260;10.988;2022-08-21T06:56:32;17.90;53.20
262;DHT22;114;48.260;10.988;2022-08-21T06:58:59;17.90;42.50
262;DHT22;114;48.260;10.988;2022-08-21T07:01:26;18.00;44.30
262;DHT22;114;48.260;10.988;2022-08-21T07:03:52;18.10;43.90
262;DHT22;114;48.260;10.988;2022-08-21T07:06:18;18.00;43.40
262;DHT22;114;48.260;10.988;2022-08-21T07:08:44;18.10;49.60
262;DHT22;114;48.260;10.988;2022-08-21T07:11:14;18.10;39.60
262;DHT22;114;48.260;10.988;2022-08-21T07:13:42;18.20;42.00
262;DHT22;114;48.260;10.988;2022-08-21T07:16:08;18.20;42.20
262;DHT22;114;48.260;10.988;2022-08-21T07:18:35;18.30;47.70
262;DHT22;114;48.260;10.988;2022-08-21T07:21:02;18.40;45.30
262;DHT22;114;48.260;10.988;2022-08-21T07:23:32;18.60;38.10
262;DHT22;114;48.260;10.988;2022-08-21T07:25:59;18.70;40.70
262;DHT22;114;48.260;10.988;2022-08-21T07:28:26;18.60;36.80
262;DHT22;114;48.260;10.988;2022-08-21T07:30:56;18.70;32.30
262;DHT22;114;48.260;10.988;2022-08-21T07:33:22;18.80;34.50
262;DHT22;114;48.260;10.988;2022-08-21T07:35:48;18.90;31.10
262;DHT22;114;48.260;10.988;2022-08-21T07:38:14;19.10;29.80
262;DHT22;114;48.260;10.988;2022-08-21T07:40:40;19.30;26.30
262;DHT22;114;48.260;10.988;2022-08-21T07:43:06;19.20;21.80
262;DHT22;114;48.260;10.988;2022-08-21T07:45:32;19.40;24.80
262;DHT22;114;48.260;10.988;2022-08-21T07:47:58;19.60;26.20
262;DHT22;114;48.260;10.988;2022-08-21T07:50:25;19.50;20.20
262;DHT22;114;48.260;10.988;2022-08-21T07:52:51;19.80;16.70
262;DHT22;114;48.260;10.988;2022-08-21T07:55:19;19.80;18.10
262;DHT22;114;48.260;10.988;2022-08-21T07:57:46;20.10;14.90
262;DHT22;114;48.260;10.988;2022-08-21T08:00:15;20.00;14.50
262;DHT22;114;48.260;10.988;2022-08-21T08:02:45;20.20;12.00
262;DHT22;114;48.260;10.988;2022-08-21T08:05:12;20.40;11.40
262;DHT22;114;48.260;10.988;2022-08-21T08:07:38;20.20;12.50
262;DHT22;114;48.260;10.988;2022-08-21T08:10:06;20.40;6.30
262;DHT22;114;48.260;10.988;2022-08-21T08:12:39;20.10;7.30
262;DHT22;114;48.260;10.988;2022-08-21T08:15:09;20.40;9.40
262;DHT22;114;48.260;10.988;2022-08-21T08:17:35;20.60;7.00
262;DHT22;114;48.260;10.988;2022-08-21T08:20:03;20.50;5.90
262;DHT22;114;48.260;10.988;2022-08-21T08:22:29;20.70;3.80
262;DHT22;114;48.260;10.988;2022-08-21T08:24:55;20.60;7.90
262;DHT22;114;48.260;10.988;2022-08-21T08:27:22;20.90;9.60
262;DHT22;114;48.260;10.988;2022-08-21T08:29:49;21.00;7.00
262;DHT22;114;48.260;10.988;2022-08-21T08:32:15;21.00;4.10
262;DHT22;114;48.260;10.988;2022-08-21T08:34:41;21.10;4.70
262;DHT22;114;48.260;10.988;2022-08-21T08:37:09;21.10;5.70
262;DHT22;114;48.260;10.988;2022-08-21T08:39:37;21.50;5.00
262;DHT22;114;48.260;10.988;2022-08-21T08:44:48;22.00;1.60
262;DHT22;114;48.260;10.988;2022-08-21T08:47:19;22.30;1.00
262;DHT22;114;48.260;10.988;2022-08-21T08:50:06;22.20;1.00
262;DHT22;114;48.260;10.988;2022-08-21T08:52:41;22.20;1.00
262;DHT22;114;48.260;10.988;2022-08-21T08:55:15;22.20;1.00
262;DHT22;114;48.260;10.988;2022-08-21T08:57:46;22.00;1.00
262;DHT22;114;48.260;10.988;2022-08-21T09:00:18;21.50;1.00
262;DHT22;114;48.260;10.988;2022-08-21T09:02:46;21.50;1.00
262;DHT22;114;48.260;10.988;2022-08-21T09:05:24;21.50;6.10
262;DHT22;114;48.260;10.988;2022-08-21T09:13:11;21.80;1.00
262;DHT22;114;48.260;10.988;2022-08-21T09:19:05;22.20;1.00
262;DHT22;114;48.260;10.988;2022-08-21T09:21:24;22.40;1.00
262;DHT22;114;48.260;10.988;2022-08-21T09:26:31;22.90;1.00
262;DHT22;114;48.260;10.988;2022-08-21T09:28:59;23.10;1.00
262;DHT22;114;48.260;10.988;2022-08-21T09:34:09;23.20;1.00
262;DHT22;114;48.260;10.988;2022-08-21T09:36:58;23.40;1.00
262;DHT22;114;48.260;10.988;2022-08-21T09:39:31;23.60;1.00
262;DHT22;114;48.260;10.988;2022-08-21T09:42:08;23.20;1.00
262;DHT22;114;48.260;10.988;2022-08-21T09:44:37;23.60;1.00
262;DHT22;114;48.260;10.988;2022-08-21T09:47:06;23.00;1.00
262;DHT22;114;48.260;10.988;2022-08-21T09:49:36;22.80;1.00
262;DHT22;114;48.260;10.988;2022-08-21T09:52:14;23.20;1.00
262;DHT22;114;48.260;10.988;2022-08-21T09:54:41;23.30;1.00
262;DHT22;114;48.260;10.988;2022-08-21T09:59:55;24.10;1.00
262;DHT22;114;48.260;10.988;2022-08-21T10:02:30;24.50;1.00
262;DHT22;114;48.260;10.988;2022-08-21T10:05:03;24.40;1.00
262;DHT22;114;48.260;10.988;2022-08-21T10:07:32;24.70;1.00
262;DHT22;114;48.260;10.988;2022-08-21T10:10:06;24.70;1.00
262;DHT22;114;48.260;10.988;2022-08-21T10:18:27;24.90;1.00
262;DHT22;114;48.260;10.988;2022-08-21T10:23:54;25.20;1.00
262;DHT22;114;48.260;10.988;2022-08-21T10:34:55;25.10;1.00
262;DHT22;114;48.260;10.988;2022-08-21T10:37:54;25.40;1.00
262;DHT22;114;48.260;10.988;2022-08-21T10:40:42;25.70;1.00
262;DHT22;114;48.260;10.988;2022-08-21T10:43:25;26.10;1.00
262;DHT22;114;48.260;10.988;2022-08-21T10:55:06;27.30;1.00
262;DHT22;114;48.260;10.988;2022-08-21T10:58:08;27.30;1.00
262;DHT22;114;48.260;10.988;2022-08-21T11:00:49;26.90;1.00
262;DHT22;114;48.260;10.988;2022-08-21T11:03:35;26.70;1.00
262;DHT22;114;48.260;10.988;2022-08-21T11:06:25;26.30;1.00
262;DHT22;114;48.260;10.988;2022-08-21T11:09:03;25.90;1.00
262;DHT22;114;48.260;10.988;2022-08-21T11:11:41;25.30;1.00
262;DHT22;114;48.260;10.988;2022-08-21T11:14:34;25.00;1.00
262;DHT22;114;48.260;10.988;2022-08-21T11:17:14;25.20;1.00
262;DHT22;114;48.260;10.988;2022-08-21T11:19:59;25.20;1.00
262;DHT22;114;48.260;10.988;2022-08-21T11:23:08;25.00;1.00
262;DHT22;114;48.260;10.988;2022-08-21T11:25:41;25.00;1.00
262;DHT22;114;48.260;10.988;2022-08-21T11:28:10;25.00;1.00
262;DHT22;114;48.260;10.988;2022-08-21T11:30:54;25.90;1.00
262;DHT22;114;48.260;10.988;2022-08-21T11:39:45;27.90;1.00
262;DHT22;114;48.260;10.988;2022-08-21T11:45:26;28.80;1.00
262;DHT22;114;48.260;10.988;2022-08-21T11:48:40;29.10;1.00
262;DHT22;114;48.260;10.988;2022-08-21T11:50:58;28.10;1.00
262;DHT22;114;48.260;10.988;2022-08-21T11:53:38;27.70;1.00
262;DHT22;114;48.260;10.988;2022-08-21T11:56:16;27.60;1.00
262;DHT22;114;48.260;10.988;2022-08-21T11:59:04;28.80;1.00
262;DHT22;114;48.260;10.988;2022-08-21T12:01:36;30.90;1.00
262;DHT22;114;48.260;10.988;2022-08-21T12:04:30;32.40;1.00
262;DHT22;114;48.260;10.988;2022-08-21T12:07:15;34.00;1.00
262;DHT22;114;48.260;10.988;2022-08-21T12:09:53;34.30;1.00
262;DHT22;114;48.260;10.988;2022-08-21T12:18:03;34.70;1.00
262;DHT22;114;48.260;10.988;2022-08-21T12:20:45;34.80;1.00
262;DHT22;114;48.260;10.988;2022-08-21T12:23:47;35.00;1.00
262;DHT22;114;48.260;10.988;2022-08-21T12:26:32;35.20;1.00
262;DHT22;114;48.260;10.988;2022-08-21T12:29:11;36.60;1.00
262;DHT22;114;48.260;10.988;2022-08-21T12:31:53;37.10;1.00
262;DHT22;114;48.260;10.988;2022-08-21T12:34:20;35.70;1.00
262;DHT22;114;48.260;10.988;2022-08-21T12:40:22;35.20;1.00
262;DHT22;114;48.260;10.988;2022-08-21T12:42:53;36.80;1.00
262;DHT22;114;48.260;10.988;2022-08-21T12:45:34;36.40;1.00
262;DHT22;114;48.260;10.988;2022-08-21T12:48:08;37.40;1.00
262;DHT22;114;48.260;10.988;2022-08-21T12:55:43;37.70;1.00
262;DHT22;114;48.260;10.988;2022-08-21T12:58:23;38.20;1.00
262;DHT22;114;48.260;10.988;2022-08-21T13:01:23;38.50;1.00
262;DHT22;114;48.260;10.988;2022-08-21T13:03:53;38.90;1.00
262;DHT22;114;48.260;10.988;2022-08-21T13:06:20;39.00;1.00
262;DHT22;114;48.260;10.988;2022-08-21T13:08:48;38.60;1.00
262;DHT22;114;48.260;10.988;2022-08-21T13:11:20;38.80;1.00
262;DHT22;114;48.260;10.988;2022-08-21T13:13:51;38.40;1.00
262;DHT22;114;48.260;10.988;2022-08-21T13:16:26;37.70;1.00
262;DHT22;114;48.260;10.988;2022-08-21T13:19:03;38.80;1.00
262;DHT22;114;48.260;10.988;2022-08-21T13:21:39;38.70;1.00
262;DHT22;114;48.260;10.988;2022-08-21T13:24:32;38.20;1.00
262;DHT22;114;48.260;10.988;2022-08-21T13:26:59;38.50;1.00
262;DHT22;114;48.260;10.988;2022-08-21T13:29:31;38.30;1.00
262;DHT22;114;48.260;10.988;2022-08-21T13:32:02;38.90;1.00
262;DHT22;114;48.260;10.988;2022-08-21T13:34:34;38.90;1.00
262;DHT22;114;48.260;10.988;2022-08-21T13:37:06;39.20;1.00
262;DHT22;114;48.260;10.988;2022-08-21T13:39:33;38.10;1.00
262;DHT22;114;48.260;10.988;2022-08-21T13:42:01;38.90;1.00
262;DHT22;114;48.260;10.988;2022-08-21T13:46:59;38.60;1.00
262;DHT22;114;48.260;10.988;2022-08-21T13:49:38;39.30;1.00
262;DHT22;114;48.260;10.988;2022-08-21T13:52:17;39.40;1.00
262;DHT22;114;48.260;10.988;2022-08-21T13:55:07;39.50;1.00
262;DHT22;114;48.260;10.988;2022-08-21T13:57:35;39.90;1.00
262;DHT22;114;48.260;10.988;2022-08-21T14:00:19;39.70;1.00
262;DHT22;114;48.260;10.988;2022-08-21T14:02:48;40.20;1.00
262;DHT22;114;48.260;10.988;2022-08-21T14:05:28;39.80;1.00
262;DHT22;114;48.260;10.988;2022-08-21T14:08:20;39.60;1.00
262;DHT22;114;48.260;10.988;2022-08-21T14:10:51;39.60;1.00
262;DHT22;114;48.260;10.988;2022-08-21T14:13:43;39.60;1.00
262;DHT22;114;48.260;10.988;2022-08-21T14:16:22;39.90;1.00
262;DHT22;114;48.260;10.988;2022-08-21T14:18:52;40.10;1.00
262;DHT22;114;48.260;10.988;2022-08-21T14:21:47;40.50;1.00
262;DHT22;114;48.260;10.988;2022-08-21T14:26:55;40.30;1.00
262;DHT22;114;48.260;10.988;2022-08-21T14:29:24;40.00;1.00
262;DHT22;114;48.260;10.988;2022-08-21T14:31:56;40.50;1.00
262;DHT22;114;48.260;10.988;2022-08-21T14:34:25;39.80;1.00
262;DHT22;114;48.260;10.988;2022-08-21T14:36:52;39.80;1.00
262;DHT22;114;48.260;10.988;2022-08-21T14:39:19;39.50;1.00
262;DHT22;114;48.260;10.988;2022-08-21T14:41:45;39.50;1.00
262;DHT22;114;48.260;10.988;2022-08-21T14:44:15;39.10;1.00
262;DHT22;114;48.260;10.988;2022-08-21T14:46:43;37.80;1.00
262;DHT22;114;48.260;10.988;2022-08-21T14:49:09;37.50;1.00
262;DHT22;114;48.260;10.988;2022-08-21T14:51:35;36.70;1.00
262;DHT22;114;48.260;10.988;2022-08-21T14:54:00;38.20;1.00
262;DHT22;114;48.260;10.988;2022-08-21T14:56:26;38.70;1.00
262;DHT22;114;48.260;10.988;2022-08-21T14:58:52;39.00;1.00
262;DHT22;114;48.260;10.988;2022-08-21T15:01:20;39.60;1.00
262;DHT22;114;48.260;10.988;2022-08-21T15:03:47;39.80;1.00
262;DHT22;114;48.260;10.988;2022-08-21T15:06:15;40.00;1.00
262;DHT22;114;48.260;10.988;2022-08-21T15:08:43;39.50;1.00
262;DHT22;114;48.260;10.988;2022-08-21T15:11:12;39.30;1.00
262;DHT22;114;48.260;10.988;2022-08-21T15:13:39;39.50;1.00
262;DHT22;114;48.260;10.988;2022-08-21T15:16:05;39.30;1.00
262;DHT22;114;48.260;10.988;2022-08-21T15:18:33;37.70;1.00
262;DHT22;114;48.260;10.988;2022-08-21T15:20:59;37.50;1.00
262;DHT22;114;48.260;10.988;2022-08-21T15:23:25;37.80;1.00
262;DHT22;114;48.260;10.988;2022-08-21T15:25:52;38.80;1.00
262;DHT22;114;48.260;10.988;2022-08-21T15:28:19;39.30;1.00
262;DHT22;114;48.260;10.988;2022-08-21T15:30:50;38.00;1.00
262;DHT22;114;48.260;10.988;2022-08-21T15:33:17;38.00;1.00
262;DHT22;114;48.260;10.988;2022-08-21T15:35:43;37.80;1.00
262;DHT22;114;48.260;10.988;2022-08-21T15:38:12;37.70;1.00
262;DHT22;114;48.260;10.988;2022-08-21T15:40:39;37.60;1.00
262;DHT22;114;48.260;10.988;2022-08-21T15:43:06;37.50;1.00
262;DHT22;114;48.260;10.988;2022-08-21T15:45:34;37.70;1.00
262;DHT22;114;48.260;10.988;2022-08-21T15:48:00;37.90;1.00
262;DHT22;114;48.260;10.988;2022-08-21T15:50:28;38.00;1.00
262;DHT22;114;48.260;10.988;2022-08-21T15:52:54;37.50;1.00
262;DHT22;114;48.260;10.988;2022-08-21T15:55:20;38.10;1.00
262;DHT22;114;48.260;10.988;2022-08-21T15:57:49;37.90;1.00
262;DHT22;114;48.260;10.988;2022-08-21T16:00:19;38.00;1.00
262;DHT22;114;48.260;10.988;2022-08-21T16:02:48;37.70;1.00
262;DHT22;114;48.260;10.988;2022-08-21T16:05:15;37.50;1.00
262;DHT22;114;48.260;10.988;2022-08-21T16:07:45;36.70;1.00
262;DHT22;114;48.260;10.988;2022-08-21T16:10:12;35.20;1.00
262;DHT22;114;48.260;10.988;2022-08-21T16:12:42;33.50;1.00
262;DHT22;114;48.260;10.988;2022-08-21T16:15:11;31.60;1.00
262;DHT22;114;48.260;10.988;2022-08-21T16:17:38;30.20;1.00
262;DHT22;114;48.260;10.988;2022-08-21T16:20:11;29.30;1.00
262;DHT22;114;48.260;10.988;2022-08-21T16:22:37;28.40;1.00
262;DHT22;114;48.260;10.988;2022-08-21T16:25:05;27.90;1.00
262;DHT22;114;48.260;10.988;2022-08-21T16:27:31;27.30;1.00
262;DHT22;114;48.260;10.988;2022-08-21T16:29:58;26.80;1.00
262;DHT22;114;48.260;10.988;2022-08-21T16:32:24;26.50;1.00
262;DHT22;114;48.260;10.988;2022-08-21T16:34:50;26.10;1.00
262;DHT22;114;48.260;10.988;2022-08-21T16:37:19;25.80;1.00
262;DHT22;114;48.260;10.988;2022-08-21T16:39:45;25.60;1.00
262;DHT22;114;48.260;10.988;2022-08-21T16:42:15;25.50;1.00
262;DHT22;114;48.260;10.988;2022-08-21T16:44:42;25.30;1.00
262;DHT22;114;48.260;10.988;2022-08-21T16:47:08;25.20;1.00
262;DHT22;114;48.260;10.988;2022-08-21T16:49:35;25.10;1.00
262;DHT22;114;48.260;10.988;2022-08-21T16:52:04;24.90;1.00
262;DHT22;114;48.260;10.988;2022-08-21T16:54:31;24.80;1.00
262;DHT22;114;48.260;10.988;2022-08-21T16:56:57;24.60;1.00
262;DHT22;114;48.260;10.988;2022-08-21T16:59:24;24.60;1.00
262;DHT22;114;48.260;10.988;2022-08-21T17:01:51;24.40;1.00
262;DHT22;114;48.260;10.988;2022-08-21T17:04:19;24.20;1.00
262;DHT22;114;48.260;10.988;2022-08-21T17:06:46;24.10;1.00
262;DHT22;114;48.260;10.988;2022-08-21T17:09:13;24.00;1.00
262;DHT22;114;48.260;10.988;2022-08-21T17:11:43;23.80;1.00
262;DHT22;114;48.260;10.988;2022-08-21T17:14:21;23.70;1.00
262;DHT22;114;48.260;10.988;2022-08-21T17:16:50;23.60;1.00
262;DHT22;114;48.260;10.988;2022-08-21T17:19:21;23.60;1.00
262;DHT22;114;48.260;10.988;2022-08-21T17:21:48;23.60;1.00
262;DHT22;114;48.260;10.988;2022-08-21T17:24:14;23.40;1.00
262;DHT22;114;48.260;10.988;2022-08-21T17:26:41;23.30;1.00
262;DHT22;114;48.260;10.988;2022-08-21T17:29:07;23.20;1.00
262;DHT22;114;48.260;10.988;2022-08-21T17:31:36;23.20;1.00
262;DHT22;114;48.260;10.988;2022-08-21T17:34:03;23.10;1.00
262;DHT22;114;48.260;10.988;2022-08-21T17:36:30;23.00;1.00
262;DHT22;114;48.260;10.988;2022-08-21T17:38:56;22.90;1.00
262;DHT22;114;48.260;10.988;2022-08-21T17:41:23;22.90;1.00
262;DHT22;114;48.260;10.988;2022-08-21T17:43:49;22.70;1.00
262;DHT22;114;48.260;10.988;2022-08-21T17:46:22;22.70;1.00
262;DHT22;114;48.260;10.988;2022-08-21T17:48:49;22.60;1.00
262;DHT22;114;48.260;10.988;2022-08-21T17:51:16;22.50;1.00
262;DHT22;114;48.260;10.988;2022-08-21T17:53:42;22.40;1.00
262;DHT22;114;48.260;10.988;2022-08-21T17:56:11;22.40;1.00
262;DHT22;114;48.260;10.988;2022-08-21T17:58:38;22.30;1.00
262;DHT22;114;48.260;10.988;2022-08-21T18:01:04;22.10;1.00